createdAt,value
2019-04-01T00:00:43.124Z,16.97
2019-04-01T00:03:13.657Z,18.12
2019-04-01T00:05:43.668Z,17.37
2019-04-01T00:08:14.199Z,16.35
2019-04-01T00:10:44.111Z,19.32
2019-04-01T00:13:14.332Z,26.62
2019-04-01T00:15:44.554Z,13.25
2019-04-01T00:18:16.559Z,19.85
2019-04-01T00:20:46.839Z,20.35
2019-04-01T00:23:18.187Z,20.35
2019-04-01T00:25:48.203Z,23.75
2019-04-01T00:28:18.335Z,16.07
2019-04-01T00:30:48.849Z,16.90
2019-04-01T00:33:19.685Z,16.57
2019-04-01T00:35:50.009Z,19.40
2019-04-01T00:38:20.127Z,18.32
2019-04-01T00:40:50.144Z,15.70
2019-04-01T00:43:38.285Z,15.80
2019-04-01T00:46:09.223Z,16.75
2019-04-01T00:48:38.936Z,15.20
2019-04-01T00:51:09.153Z,15.18
2019-04-01T00:53:39.074Z,16.70
2019-04-01T00:56:09.392Z,15.10
2019-04-01T00:58:40.944Z,16.82
2019-04-01T01:01:11.164Z,16.93
2019-04-01T01:03:43.228Z,17.57
2019-04-01T01:06:13.347Z,15.40
2019-04-01T01:08:43.363Z,18.37
2019-04-01T01:11:13.584Z,14.83
2019-04-01T01:13:44.011Z,18.65
2019-04-01T01:16:14.129Z,16.48
2019-04-01T01:18:44.248Z,17.42
2019-04-01T01:21:14.264Z,18.25
2019-04-01T01:23:44.383Z,21.52
2019-04-01T01:26:14.501Z,17.65
2019-04-01T01:28:44.723Z,18.87
2019-04-01T01:31:14.742Z,16.45
2019-04-01T01:33:44.960Z,17.30
2019-04-01T01:36:15.079Z,19.23
2019-04-01T01:38:46.836Z,15.00
2019-04-01T01:41:16.954Z,15.50
2019-04-01T01:43:47.995Z,13.80
2019-04-01T01:46:18.113Z,17.07
2019-04-01T01:48:48.335Z,19.00
2019-04-01T01:51:18.455Z,20.55
2019-04-01T01:53:49.903Z,15.45
2019-04-01T01:56:20.022Z,17.37
2019-04-01T01:58:50.243Z,17.87
2019-04-01T02:01:20.362Z,14.38
2019-04-01T02:03:51.812Z,18.82
2019-04-01T02:06:22.032Z,14.80
2019-04-01T02:08:52.460Z,13.68
2019-04-01T02:11:22.476Z,18.73
2019-04-01T02:13:52.698Z,19.55
2019-04-01T02:16:25.887Z,19.20
2019-04-01T02:18:57.850Z,14.07
2019-04-01T02:21:28.172Z,16.12
2019-04-01T02:23:58.804Z,19.85
2019-04-01T02:26:30.450Z,17.02
2019-04-01T02:29:00.785Z,15.60
2019-04-01T02:31:31.515Z,18.42
2019-04-01T02:34:01.941Z,15.38
2019-04-01T02:36:35.030Z,16.97
2019-04-01T02:39:09.352Z,16.00
2019-04-01T02:41:43.255Z,15.08
2019-04-01T02:44:13.271Z,22.42
2019-04-01T02:46:44.003Z,15.35
2019-04-01T02:49:14.122Z,14.00
2019-04-01T02:51:44.447Z,14.25
2019-04-01T02:54:14.564Z,13.53
2019-04-01T02:56:44.788Z,15.50
2019-04-01T02:59:15.518Z,14.50
2019-04-01T03:01:46.456Z,15.38
2019-04-01T03:04:16.793Z,14.78
2019-04-01T03:06:47.514Z,14.30
2019-04-01T03:09:19.081Z,13.90
2019-04-01T03:11:50.721Z,14.60
2019-04-01T03:14:20.841Z,14.43
2019-04-01T03:16:50.864Z,20.40
2019-04-01T03:19:22.922Z,13.15
2019-04-01T03:21:53.038Z,14.60
2019-04-01T03:24:23.259Z,14.45
2019-04-01T03:26:53.993Z,12.73
2019-04-01T03:29:26.982Z,16.00
2019-04-01T03:31:57.098Z,14.85
2019-04-01T03:34:27.490Z,14.93
2019-04-01T03:36:57.950Z,14.05
2019-04-01T03:39:29.502Z,13.15
2019-04-01T03:41:59.826Z,14.45
2019-04-01T03:44:32.402Z,14.85
2019-04-01T03:47:02.522Z,14.65
2019-04-01T03:49:32.646Z,12.55
2019-04-01T03:52:04.300Z,16.17
2019-04-01T03:54:34.924Z,18.52
2019-04-01T03:57:05.247Z,14.33
2019-04-01T03:59:36.186Z,15.05
2019-04-01T04:02:06.928Z,18.52
2019-04-01T04:04:37.176Z,13.25
2019-04-01T04:07:12.377Z,12.00
2019-04-01T04:09:42.510Z,12.43
2019-04-01T04:12:12.513Z,13.50
2019-04-01T04:14:42.710Z,15.40
2019-04-01T04:17:17.564Z,13.00
2019-04-01T04:19:49.631Z,14.75
2019-04-01T04:22:19.667Z,15.00
2019-04-01T04:24:50.075Z,14.38
2019-04-01T04:27:21.524Z,11.22
2019-04-01T04:29:51.436Z,12.35
2019-04-01T04:32:24.938Z,14.00
2019-04-01T04:34:59.760Z,13.70
2019-04-01T04:37:31.928Z,15.95
2019-04-01T04:40:01.945Z,15.13
2019-04-01T04:42:32.267Z,13.70
2019-04-01T04:45:02.287Z,15.30
2019-04-01T04:47:34.862Z,13.55
2019-04-01T04:50:06.719Z,14.18
2019-04-01T04:52:36.735Z,14.78
2019-04-01T04:55:07.059Z,12.10
2019-04-01T04:57:37.074Z,12.75
2019-04-01T05:00:08.320Z,14.47
2019-04-01T05:02:41.001Z,14.90
2019-04-01T05:05:11.118Z,10.43
2019-04-01T05:07:42.567Z,10.82
2019-04-01T05:10:12.584Z,12.95
2019-04-01T05:12:43.010Z,15.55
2019-04-01T05:15:12.923Z,10.23
2019-04-01T05:17:46.807Z,13.50
2019-04-01T05:20:16.619Z,12.85
2019-04-01T05:22:48.093Z,15.48
2019-04-01T05:25:18.222Z,10.48
2019-04-01T05:27:50.378Z,12.37
2019-04-01T05:30:20.804Z,11.57
2019-04-01T05:32:52.720Z,10.08
2019-04-01T05:35:24.216Z,11.45
2019-04-01T05:38:00.668Z,11.83
2019-04-01T05:40:31.723Z,14.33
2019-04-01T05:43:01.842Z,13.85
2019-04-01T05:45:33.590Z,11.65
2019-04-01T05:48:04.332Z,13.22
2019-04-01T05:50:37.524Z,10.50
2019-04-01T05:53:08.154Z,10.40
2019-04-01T05:55:38.477Z,10.43
2019-04-01T05:58:09.109Z,12.78
2019-04-01T06:00:43.937Z,14.10
2019-04-01T06:03:14.672Z,10.50
2019-04-01T06:05:45.403Z,12.43
2019-04-01T06:08:15.829Z,12.00
2019-04-01T06:10:46.052Z,15.58
2019-04-01T06:13:17.500Z,10.63
2019-04-01T06:15:48.441Z,12.18
2019-04-01T06:18:18.352Z,9.58
2019-04-01T06:20:48.470Z,13.35
2019-04-01T06:23:22.179Z,9.80
2019-04-01T06:25:52.907Z,14.78
2019-04-01T06:28:23.025Z,10.85
2019-04-01T06:30:54.680Z,10.78
2019-04-01T06:33:25.107Z,13.43
2019-04-01T06:35:55.225Z,10.98
2019-04-01T06:38:25.958Z,10.45
2019-04-01T06:40:59.046Z,9.73
2019-04-01T06:43:29.472Z,8.88
2019-04-01T06:45:59.708Z,9.38
2019-04-01T06:48:30.073Z,8.33
2019-04-01T06:51:00.237Z,10.85
2019-04-01T06:53:33.326Z,11.68
2019-04-01T06:56:03.550Z,8.10
2019-04-01T06:58:37.250Z,9.23
2019-04-01T07:01:07.982Z,10.05
2019-04-01T07:03:38.511Z,9.68
2019-04-01T07:06:08.431Z,10.48
2019-04-01T07:08:40.591Z,10.05
2019-04-01T07:11:10.722Z,11.78
2019-04-01T07:13:42.367Z,10.90
2019-04-01T07:16:15.683Z,7.12
2019-04-01T07:18:44.445Z,10.88
2019-04-01T07:21:14.565Z,8.48
2019-04-01T07:23:44.787Z,8.70
2019-04-01T07:26:15.007Z,12.35
2019-04-01T07:28:45.642Z,10.15
2019-04-01T07:31:16.268Z,9.50
2019-04-01T07:33:46.591Z,8.08
2019-04-01T07:36:17.017Z,9.05
2019-04-01T07:38:48.469Z,10.03
2019-04-01T07:41:18.407Z,9.03
2019-04-01T07:43:49.523Z,13.35
2019-04-01T07:46:19.297Z,9.60
2019-04-01T07:48:50.171Z,9.45
2019-04-01T07:51:22.056Z,11.43
2019-04-01T07:53:53.992Z,7.95
2019-04-01T07:56:24.316Z,6.50
2019-04-01T07:58:56.073Z,9.20
2019-04-01T08:01:26.089Z,12.75
2019-04-01T08:03:56.310Z,12.37
2019-04-01T08:06:26.433Z,10.25
2019-04-01T08:08:56.446Z,8.15
2019-04-01T08:11:28.127Z,11.00
2019-04-01T08:13:58.220Z,14.07
2019-04-01T08:16:28.952Z,10.93
2019-04-01T08:18:59.071Z,8.10
2019-04-01T08:21:32.057Z,13.40
2019-04-01T08:24:05.045Z,8.35
2019-04-01T08:26:35.263Z,9.15
2019-04-01T08:29:07.328Z,10.05
2019-04-01T08:31:43.693Z,12.15
2019-04-01T08:34:14.324Z,14.35
2019-04-01T08:36:44.341Z,11.25
2019-04-01T08:39:16.199Z,8.20
2019-04-01T08:41:48.571Z,9.00
2019-04-01T08:44:19.202Z,10.48
2019-04-01T08:46:49.729Z,13.78
2019-04-01T08:49:21.999Z,14.43
2019-04-01T08:51:52.425Z,7.35
2019-04-01T08:54:26.435Z,11.53
2019-04-01T08:57:00.345Z,9.88
2019-04-01T08:59:30.563Z,10.88
2019-04-01T09:02:00.785Z,12.00
2019-04-01T09:04:31.519Z,9.60
2019-04-01T09:07:02.063Z,7.92
2019-04-01T09:09:33.496Z,9.90
2019-04-01T09:12:03.838Z,8.10
2019-04-01T09:14:36.293Z,9.75
2019-04-01T09:17:06.310Z,11.38
2019-04-01T09:19:36.429Z,7.22
2019-04-01T09:22:07.879Z,13.60
2019-04-01T09:24:38.100Z,12.70
2019-04-01T09:27:08.423Z,12.47
2019-04-01T09:29:38.542Z,11.75
2019-04-01T09:32:09.582Z,15.08
2019-04-01T09:34:47.381Z,13.48
2019-04-01T09:37:17.704Z,12.60
2019-04-01T09:39:47.925Z,9.65
2019-04-01T09:42:20.914Z,12.50
2019-04-01T09:44:53.079Z,13.48
2019-04-01T09:47:23.196Z,11.75
2019-04-01T09:49:53.111Z,10.00
2019-04-01T09:52:23.230Z,9.83
2019-04-01T09:54:54.684Z,13.15
2019-04-01T09:57:24.901Z,11.60
2019-04-01T09:59:55.429Z,14.25
2019-04-01T10:02:31.948Z,12.95
2019-04-01T10:04:59.455Z,12.68
2019-04-01T10:07:29.699Z,16.00
2019-04-01T10:10:00.000Z,10.08
2019-04-01T10:12:30.221Z,9.30
2019-04-01T10:15:00.482Z,14.50
2019-04-01T10:17:31.072Z,10.93
2019-04-01T10:20:03.701Z,11.93
2019-04-01T10:22:32.746Z,10.30
2019-04-01T10:25:09.620Z,13.48
2019-04-01T10:27:39.535Z,11.30
2019-04-01T10:30:14.363Z,12.33
2019-04-01T10:32:44.687Z,14.13
2019-04-01T10:35:15.221Z,12.58
2019-04-01T10:37:45.436Z,11.08
2019-04-01T10:40:16.067Z,14.43
2019-04-01T10:42:47.927Z,13.55
2019-04-01T10:45:18.967Z,14.95
2019-04-01T10:47:48.923Z,11.50
2019-04-01T10:50:20.299Z,12.50
2019-04-01T10:52:50.631Z,10.68
2019-04-01T10:55:20.840Z,11.70
2019-04-01T10:57:53.947Z,14.75
2019-04-01T11:00:22.919Z,16.80
2019-04-01T11:02:53.229Z,11.25
2019-04-01T11:05:25.015Z,15.00
2019-04-01T11:07:57.679Z,13.08
2019-04-01T11:10:29.780Z,12.13
2019-04-01T11:13:00.280Z,14.13
2019-04-01T11:15:33.590Z,11.63
2019-04-01T11:18:03.930Z,10.90
2019-04-01T11:20:36.150Z,14.78
2019-04-01T11:23:06.006Z,12.25
2019-04-01T11:25:39.605Z,13.95
2019-04-01T11:28:09.827Z,14.53
2019-04-01T11:30:40.163Z,15.15
2019-04-01T11:33:10.380Z,14.20
2019-04-01T11:35:40.502Z,16.42
2019-04-01T11:38:11.022Z,16.32
2019-04-01T11:40:41.182Z,17.30
2019-04-01T11:43:12.980Z,15.10
2019-04-01T11:45:45.902Z,20.82
2019-04-01T11:48:16.332Z,13.55
2019-04-01T11:50:48.066Z,16.10
2019-04-01T11:53:18.186Z,17.57
2019-04-01T11:55:51.489Z,16.35
2019-04-01T11:58:21.492Z,15.15
2019-04-01T12:00:51.814Z,14.53
2019-04-01T12:03:23.367Z,17.32
2019-04-01T12:05:53.691Z,14.47
2019-04-01T12:08:23.912Z,12.53
2019-04-01T12:10:53.928Z,16.35
2019-04-01T12:13:23.944Z,13.22
2019-04-01T12:15:54.166Z,17.02
2019-04-01T12:18:24.386Z,15.08
2019-04-01T12:20:54.505Z,14.90
2019-04-01T12:23:24.624Z,17.25
2019-04-01T12:25:54.846Z,19.25
2019-04-01T12:28:26.704Z,16.40
2019-04-01T12:30:59.794Z,16.32
2019-04-01T12:33:29.911Z,15.03
2019-04-01T12:36:02.795Z,18.57
2019-04-01T12:38:32.919Z,15.93
2019-04-01T12:41:06.412Z,16.25
2019-04-01T12:43:36.428Z,17.37
2019-04-01T12:46:06.854Z,15.65
2019-04-01T12:48:39.769Z,16.07
2019-04-01T12:51:09.754Z,15.40
2019-04-01T12:53:40.077Z,17.02
2019-04-01T12:56:10.298Z,17.42
2019-04-01T12:58:45.283Z,15.80
2019-04-01T13:01:16.475Z,17.05
2019-04-01T13:03:49.461Z,16.67
2019-04-01T13:06:19.788Z,17.67
2019-04-01T13:08:50.108Z,18.90
2019-04-01T13:11:21.661Z,16.32
2019-04-01T13:13:51.882Z,18.95
2019-04-01T13:16:21.901Z,18.90
2019-04-01T13:18:52.221Z,16.35
2019-04-01T13:21:22.237Z,17.67
2019-04-01T13:23:52.459Z,16.48
2019-04-01T13:26:25.854Z,16.05
2019-04-01T13:28:58.840Z,18.23
2019-04-01T13:31:30.392Z,16.15
2019-04-01T13:34:02.150Z,19.67
2019-04-01T13:36:33.702Z,17.12
2019-04-01T13:39:05.975Z,18.50
2019-04-01T13:41:42.409Z,15.53
2019-04-01T13:44:09.029Z,18.07
2019-04-01T13:46:41.247Z,18.65
2019-04-01T13:49:12.760Z,16.45
2019-04-01T13:51:44.569Z,16.85
2019-04-01T13:54:14.469Z,17.30
2019-04-01T13:56:46.018Z,18.45
2019-04-01T13:59:17.479Z,16.05
2019-04-01T14:01:49.323Z,17.42
2019-04-01T14:04:20.879Z,16.77
2019-04-01T14:06:51.420Z,16.87
2019-04-01T14:09:22.448Z,17.95
2019-04-01T14:11:52.567Z,18.30
2019-04-01T14:14:22.788Z,17.12
2019-04-01T14:16:54.135Z,17.65
2019-04-01T14:19:25.075Z,18.00
2019-04-01T14:21:56.728Z,17.42
2019-04-01T14:24:28.588Z,22.00
2019-04-01T14:26:58.707Z,19.77
2019-04-01T14:29:28.986Z,17.87
2019-04-01T14:32:02.444Z,20.08
2019-04-01T14:34:33.261Z,16.55
2019-04-01T14:37:09.675Z,18.40
2019-04-01T14:39:39.337Z,19.65
2019-04-01T14:42:12.526Z,18.02
2019-04-01T14:44:42.542Z,31.27
2019-04-01T14:47:12.559Z,18.90
2019-04-01T14:49:44.008Z,16.97
2019-04-01T14:52:14.128Z,20.08
2019-04-01T14:54:47.318Z,17.15
2019-04-01T14:57:18.973Z,16.40
2019-04-01T14:59:49.194Z,17.98
2019-04-01T15:02:20.746Z,18.35
2019-04-01T15:04:50.865Z,17.05
2019-04-01T15:07:20.984Z,16.85
2019-04-01T15:09:51.513Z,17.92
2019-04-01T15:12:23.065Z,18.02
2019-04-01T15:14:53.285Z,17.65
2019-04-01T15:17:23.917Z,17.23
2019-04-01T15:19:54.650Z,20.05
2019-04-01T15:22:27.158Z,16.95
2019-04-01T15:25:01.645Z,18.35
2019-04-01T15:27:31.708Z,16.48
2019-04-01T15:30:03.013Z,17.50
2019-04-01T15:32:33.128Z,15.45
2019-04-01T15:35:04.880Z,16.50
2019-04-01T15:37:37.535Z,18.27
2019-04-01T15:40:08.502Z,19.37
2019-04-01T15:42:40.182Z,17.52
2019-04-01T15:45:09.968Z,18.05
2019-04-01T15:47:40.188Z,16.85
2019-04-01T15:50:11.127Z,16.12
2019-04-01T15:52:42.884Z,17.40
2019-04-01T15:55:12.764Z,16.60
2019-04-01T15:57:44.056Z,20.00
2019-04-01T16:00:20.215Z,16.55
2019-04-01T16:02:49.951Z,17.73
2019-04-01T16:05:19.832Z,16.27
2019-04-01T16:07:50.253Z,16.77
2019-04-01T16:10:23.135Z,17.45
2019-04-01T16:12:56.225Z,16.65
2019-04-01T16:15:26.038Z,18.23
2019-04-01T16:17:57.113Z,19.52
2019-04-01T16:20:29.571Z,18.07
2019-04-01T16:22:59.156Z,16.87
2019-04-01T16:25:31.630Z,17.00
2019-04-01T16:28:01.954Z,17.75
2019-04-01T16:30:31.837Z,17.82
2019-04-01T16:33:04.445Z,16.97
2019-04-01T16:35:37.219Z,20.30
2019-04-01T16:38:08.872Z,15.13
2019-04-01T16:40:38.796Z,15.70
2019-04-01T16:43:10.084Z,16.73
2019-04-01T16:45:40.465Z,17.23
2019-04-01T16:48:10.277Z,17.12
2019-04-01T16:50:40.109Z,17.85
2019-04-01T16:53:11.333Z,19.77
2019-04-01T16:55:41.144Z,16.62
2019-04-01T16:58:11.058Z,17.48
2019-04-01T17:00:41.075Z,17.87
2019-04-01T17:03:13.512Z,14.95
2019-04-01T17:05:44.976Z,15.93
2019-04-01T17:08:17.985Z,18.73
2019-04-01T17:10:48.903Z,16.57
2019-04-01T17:13:19.042Z,18.98
2019-04-01T17:15:48.915Z,16.70
2019-04-01T17:18:22.454Z,15.75
2019-04-01T17:20:52.695Z,16.60
2019-04-01T17:23:28.081Z,16.85
2019-04-01T17:26:01.539Z,25.35
2019-04-01T17:28:31.428Z,16.60
2019-04-01T17:31:01.367Z,16.07
2019-04-01T17:33:33.151Z,25.37
2019-04-01T17:36:05.470Z,16.80
2019-04-01T17:38:36.920Z,17.83
2019-04-01T17:41:07.141Z,20.52
2019-04-01T17:43:37.362Z,18.82
2019-04-01T17:46:10.152Z,19.00
2019-04-01T17:48:39.853Z,18.65
2019-04-01T17:51:10.327Z,19.00
2019-04-01T17:53:40.602Z,19.42
2019-04-01T17:56:10.723Z,18.92
2019-04-01T17:58:40.327Z,22.80
2019-04-01T18:01:10.565Z,18.73
2019-04-01T18:03:40.565Z,19.85
2019-04-01T18:06:11.661Z,16.93
2019-04-01T18:08:43.113Z,18.60
2019-04-01T18:11:15.928Z,19.27
2019-04-01T18:13:46.816Z,18.92
2019-04-01T18:16:18.940Z,18.17
2019-04-01T18:18:49.060Z,19.25
2019-04-01T18:21:19.282Z,20.17
2019-04-01T18:23:50.526Z,21.15
2019-04-01T18:26:20.650Z,21.25
2019-04-01T18:28:50.764Z,23.92
2019-04-01T18:31:21.395Z,17.73
2019-04-01T18:33:56.451Z,18.80
2019-04-01T18:36:25.833Z,19.90
2019-04-01T18:38:55.846Z,21.00
2019-04-01T18:41:25.965Z,17.55
2019-04-01T18:43:57.076Z,18.30
2019-04-01T18:46:27.534Z,16.57
2019-04-01T18:48:57.653Z,16.32
2019-04-01T18:51:27.605Z,16.82
2019-04-01T18:53:57.382Z,18.27
2019-04-01T18:56:29.132Z,15.72
2019-04-01T18:58:59.766Z,21.12
2019-04-01T19:01:29.234Z,16.97
2019-04-01T19:03:58.834Z,15.50
2019-04-01T19:06:28.381Z,18.07
2019-04-01T19:09:08.661Z,16.67
2019-04-01T19:11:29.202Z,16.15
2019-04-01T19:13:58.692Z,18.00
2019-04-01T19:16:28.267Z,18.40
2019-04-01T19:18:58.236Z,16.15
2019-04-01T19:21:27.678Z,16.52
2019-04-01T19:23:57.523Z,22.40
2019-04-01T19:26:31.043Z,16.65
2019-04-01T19:29:00.187Z,14.47
2019-04-01T19:31:31.050Z,14.58
2019-04-01T19:34:00.608Z,14.40
2019-04-01T19:36:30.203Z,14.25
2019-04-01T19:39:01.550Z,11.88
2019-04-01T19:41:32.398Z,17.70
2019-04-01T19:44:02.029Z,14.87
2019-04-01T19:46:31.510Z,14.25
2019-04-01T19:49:04.720Z,13.20
2019-04-01T19:51:32.425Z,13.08
2019-04-01T19:54:03.917Z,11.95
2019-04-01T19:56:35.140Z,11.83
2019-04-01T19:59:04.969Z,12.95
2019-04-01T20:01:36.174Z,13.00
2019-04-01T20:04:09.393Z,10.98
2019-04-01T20:06:40.900Z,13.88
2019-04-01T20:09:11.487Z,10.35
2019-04-01T20:11:41.052Z,10.38
2019-04-01T20:14:12.016Z,10.35
2019-04-01T20:16:47.019Z,10.83
2019-04-01T20:19:16.774Z,13.13
2019-04-01T20:21:47.531Z,10.32
2019-04-01T20:24:20.201Z,13.13
2019-04-01T20:26:51.396Z,10.05
2019-04-01T20:29:22.436Z,11.33
2019-04-01T20:31:52.078Z,12.15
2019-04-01T20:34:23.094Z,12.47
2019-04-01T20:36:52.691Z,14.38
2019-04-01T20:39:22.613Z,8.65
2019-04-01T20:41:52.216Z,11.70
2019-04-01T20:44:21.813Z,16.82
2019-04-01T20:46:52.999Z,15.93
2019-04-01T20:49:22.840Z,12.50
2019-04-01T20:51:54.040Z,10.30
2019-04-01T20:54:25.091Z,11.75
2019-04-01T20:56:54.597Z,13.78
2019-04-01T20:59:27.610Z,15.32
2019-04-01T21:01:57.190Z,11.65
2019-04-01T21:04:27.148Z,16.27
2019-04-01T21:06:57.288Z,11.97
2019-04-01T21:09:28.809Z,12.45
2019-04-01T21:11:58.380Z,12.07
2019-04-01T21:14:28.483Z,14.20
2019-04-01T21:16:58.015Z,11.40
2019-04-01T21:19:27.405Z,13.78
2019-04-01T21:21:58.490Z,13.00
2019-04-01T21:24:28.052Z,13.05
2019-04-01T21:26:57.557Z,11.40
2019-04-01T21:29:30.133Z,10.18
2019-04-01T21:31:59.657Z,12.93
2019-04-01T21:34:29.129Z,15.20
2019-04-01T21:36:58.647Z,17.35
2019-04-01T21:39:30.039Z,14.63
2019-04-01T21:41:59.499Z,14.35
2019-04-01T21:44:29.003Z,17.32
2019-04-01T21:46:58.543Z,13.22
2019-04-01T21:49:27.919Z,12.90
2019-04-01T21:51:57.824Z,12.75
2019-04-01T21:54:28.146Z,12.25
2019-04-01T21:57:00.576Z,11.43
2019-04-01T21:59:32.340Z,15.50
2019-04-01T22:02:01.984Z,12.68
2019-04-01T22:04:31.765Z,14.23
2019-04-01T22:07:01.211Z,13.75
2019-04-01T22:09:30.803Z,11.43
2019-04-01T22:12:03.995Z,16.60
2019-04-01T22:14:34.655Z,14.60
2019-04-01T22:17:04.407Z,13.88
2019-04-01T22:19:33.965Z,15.78
2019-04-01T22:22:03.465Z,18.70
2019-04-01T22:24:33.409Z,14.05
2019-04-01T22:27:03.459Z,14.65
2019-04-01T22:29:32.996Z,14.05
2019-04-01T22:32:02.668Z,12.13
2019-04-01T22:34:35.162Z,12.23
2019-04-01T22:37:08.104Z,13.00
2019-04-01T22:39:37.873Z,11.63
2019-04-01T22:42:07.637Z,18.70
2019-04-01T22:44:37.098Z,12.53
2019-04-01T22:47:06.578Z,13.55
2019-04-01T22:49:36.082Z,14.85
2019-04-01T22:52:06.482Z,15.50
2019-04-01T22:54:36.525Z,17.70
2019-04-01T22:57:08.179Z,15.50
2019-04-01T22:59:37.786Z,12.07
2019-04-01T23:02:07.495Z,14.30
2019-04-01T23:04:38.285Z,13.15
2019-04-01T23:07:08.317Z,15.85
2019-04-01T23:09:39.754Z,13.53
2019-04-01T23:12:09.366Z,12.30
2019-04-01T23:14:39.365Z,13.78
2019-04-01T23:17:10.528Z,15.28
2019-04-01T23:19:39.965Z,14.40
2019-04-01T23:22:11.919Z,12.60
2019-04-01T23:24:40.715Z,11.28
2019-04-01T23:27:10.559Z,12.33
2019-04-01T23:29:40.506Z,15.95
2019-04-01T23:32:11.686Z,13.60
2019-04-01T23:34:43.599Z,16.32
2019-04-01T23:37:13.632Z,15.20
2019-04-01T23:39:45.075Z,14.45
2019-04-01T23:42:16.357Z,14.58
2019-04-01T23:44:46.528Z,15.58
2019-04-01T23:47:16.593Z,16.80
2019-04-01T23:49:46.099Z,14.40
2019-04-01T23:52:15.604Z,17.40
2019-04-01T23:54:45.314Z,15.88
2019-04-01T23:57:15.899Z,13.75
2019-04-01T23:59:45.427Z,15.58
